Time;durP1;ratioP1;P1;durP2;ratioP2;P2;SDS_P1;SDS_P2;PMS_P1;PMS_P2;Temp;Humidity;BMP_temperature;BMP_pressure;BME280_temperature;BME280_humidity;BME280_pressure;Samples;Min_cycle;Max_cycle;Signal;HPM_P1;HPM_P2
2022/08/03 00:01:02;;;;;;;1.27;0.70;;;;;;;26.05;45.86;98821.72;6097136;23;20251;-90
2022/08/03 00:03:27;;;;;;;2.63;0.73;;;;;;;26.05;45.81;98813.66;6097533;23;20172;-90
2022/08/03 00:05:54;;;;;;;2.10;0.73;;;;;;;26.01;46.20;98815.06;6097351;23;20599;-90
2022/08/03 00:08:20;;;;;;;1.67;0.70;;;;;;;25.96;46.09;98817.47;6072334;23;20157;-90
2022/08/03 00:10:47;;;;;;;1.20;0.60;;;;;;;25.93;46.80;98812.47;6072036;23;20199;-89
2022/08/03 00:13:12;;;;;;;1.40;0.70;;;;;;;25.96;46.69;98809.41;6097527;23;20238;-90
2022/08/03 00:15:40;;;;;;;0.90;0.50;;;;;;;25.97;46.39;98813.75;6099185;23;20153;-90
2022/08/03 00:18:06;;;;;;;1.70;0.80;;;;;;;25.95;46.55;98807.72;6099132;23;20179;-90
2022/08/03 00:20:31;;;;;;;1.50;0.80;;;;;;;25.95;46.43;98813.09;6099372;23;20206;-90
2022/08/03 00:22:58;;;;;;;2.00;0.97;;;;;;;25.93;46.56;98811.63;6074060;23;20167;-90
2022/08/03 00:25:23;;;;;;;1.80;0.80;;;;;;;25.85;46.79;98815.25;6073958;23;20156;-90
2022/08/03 00:27:50;;;;;;;1.67;0.90;;;;;;;25.79;47.22;98805.22;6099313;23;20153;-90
2022/08/03 00:30:17;;;;;;;1.70;0.73;;;;;;;25.77;47.57;98807.28;6073753;23;20160;-91
2022/08/03 00:32:44;;;;;;;1.47;0.63;;;;;;;25.68;47.85;98808.41;6099765;23;20183;-90
2022/08/03 00:35:10;;;;;;;1.63;0.77;;;;;;;25.60;47.76;98808.47;6073772;23;20156;-90
2022/08/03 00:37:36;;;;;;;4.73;1.03;;;;;;;25.61;47.80;98805.59;6099362;23;20145;-90
2022/08/03 00:40:01;;;;;;;3.23;1.20;;;;;;;25.59;47.59;98801.44;6073843;23;20204;-90
2022/08/03 00:42:28;;;;;;;1.60;0.60;;;;;;;25.69;47.42;98799.31;6073695;23;20187;-90
2022/08/03 00:44:55;;;;;;;2.07;0.97;;;;;;;25.69;47.52;98798.47;6073814;23;20172;-90
2022/08/03 00:47:21;;;;;;;2.20;0.90;;;;;;;25.74;47.43;98801.44;6098820;23;20153;-90
2022/08/03 00:49:47;;;;;;;1.23;0.67;;;;;;;25.72;47.59;98803.47;6074011;23;20182;-90
2022/08/03 00:52:15;;;;;;;1.73;0.73;;;;;;;25.63;47.78;98800.88;6098577;23;20172;-90
2022/08/03 00:54:42;;;;;;;1.90;0.70;;;;;;;25.65;47.78;98806.88;6099146;23;20152;-89
2022/08/03 00:57:09;;;;;;;1.30;0.53;;;;;;;25.71;47.01;98804.50;6099463;23;20191;-90
2022/08/03 00:59:37;;;;;;;1.43;0.70;;;;;;;25.75;47.02;98809.31;6099113;23;20157;-90
2022/08/03 01:02:02;;;;;;;1.80;0.90;;;;;;;25.70;47.11;98805.50;6073613;23;20156;-90
2022/08/03 01:04:27;;;;;;;1.93;0.90;;;;;;;25.61;47.28;98812.81;6073667;23;20255;-90
2022/08/03 01:07:00;;;;;;;2.47;1.00;;;;;;;25.54;47.45;98811.88;6073873;23;20165;-90
2022/08/03 01:09:31;;;;;;;2.33;0.90;;;;;;;25.50;47.65;98808.72;6098579;23;20166;-90
2022/08/03 01:12:24;;;;;;;2.53;0.97;;;;;;;25.51;47.51;98812.25;6074218;23;20496;-90
2022/08/03 01:15:02;;;;;;;1.00;0.67;;;;;;;25.41;48.25;98817.84;6073868;23;20149;-90
2022/08/03 01:17:55;;;;;;;2.73;1.07;;;;;;;25.40;48.50;98809.97;6099206;23;20549;-90
2022/08/03 01:20:23;;;;;;;2.23;0.87;;;;;;;25.42;48.26;98814.13;6074406;23;20149;-90
2022/08/03 01:23:03;;;;;;;2.07;1.10;;;;;;;25.37;47.98;98819.22;6098530;23;20144;-90
2022/08/03 01:26:05;;;;;;;2.53;1.00;;;;;;;25.31;48.24;98819.13;6098167;23;20140;-90
2022/08/03 01:28:54;;;;;;;1.50;0.97;;;;;;;25.25;48.46;98814.47;6098787;23;20136;-89
2022/08/03 01:31:28;;;;;;;1.37;0.60;;;;;;;25.22;48.35;98814.84;6098581;23;20144;-91
2022/08/03 01:33:59;;;;;;;1.63;0.83;;;;;;;25.17;48.72;98818.06;6098793;23;20211;-90
2022/08/03 01:36:31;;;;;;;2.53;1.00;;;;;;;25.11;48.47;98821.47;6073601;23;20151;-89
2022/08/03 01:39:02;;;;;;;2.00;1.00;;;;;;;25.14;48.37;98820.25;6098719;23;20141;-89
2022/08/03 01:41:34;;;;;;;1.60;0.80;;;;;;;25.15;48.25;98819.25;6072987;23;20184;-90
2022/08/03 01:44:02;;;;;;;1.93;0.93;;;;;;;25.24;47.55;98823.53;6098091;23;20148;-89
2022/08/03 01:46:30;;;;;;;2.80;1.00;;;;;;;25.12;47.92;98827.66;6073142;23;20149;-90
2022/08/03 01:48:58;;;;;;;2.67;1.10;;;;;;;25.04;48.42;98824.06;6073004;23;20161;-90
2022/08/03 01:51:27;;;;;;;2.00;0.90;;;;;;;24.88;48.75;98826.84;6073019;23;20161;-89
2022/08/03 01:53:53;;;;;;;1.70;0.77;;;;;;;24.80;48.68;98832.25;6072855;23;20194;-89
2022/08/03 01:56:23;;;;;;;2.70;1.03;;;;;;;24.78;48.98;98836.09;6098141;23;20295;-89
2022/08/03 01:58:52;;;;;;;2.07;0.83;;;;;;;24.74;49.10;98835.59;6098438;23;20149;-89
2022/08/03 02:01:21;;;;;;;2.10;0.93;;;;;;;24.78;49.17;98836.09;6073079;23;20171;-89
2022/08/03 02:03:50;;;;;;;2.70;0.97;;;;;;;24.71;49.80;98830.59;6098096;23;20570;-89
2022/08/03 02:06:19;;;;;;;3.50;2.17;;;;;;;24.80;49.45;98831.41;6073045;23;20157;-90
2022/08/03 02:08:48;;;;;;;2.87;1.00;;;;;;;24.75;49.61;98820.38;6072819;23;20593;-90
2022/08/03 02:11:15;;;;;;;1.73;0.90;;;;;;;24.72;49.64;98834.13;6073850;23;20152;-90
2022/08/03 02:13:42;;;;;;;4.17;1.17;;;;;;;24.62;49.96;98831.69;6097881;23;20188;-90
2022/08/03 02:16:12;;;;;;;5.83;1.67;;;;;;;24.55;50.44;98833.41;6072766;23;20570;-89
2022/08/03 02:18:39;;;;;;;2.37;0.90;;;;;;;24.67;49.91;98823.94;6098093;23;20212;-90
2022/08/03 02:21:09;;;;;;;1.47;0.83;;;;;;;24.64;50.00;98837.69;6072734;23;20477;-90
2022/08/03 02:23:35;;;;;;;5.20;0.97;;;;;;;24.62;49.83;98836.19;6097841;23;20152;-90
2022/08/03 02:26:08;;;;;;;2.33;1.10;;;;;;;24.65;49.58;98833.16;6073030;23;20167;-90
2022/08/03 02:28:39;;;;;;;3.53;0.73;;;;;;;24.70;49.16;98834.31;6072757;23;20172;-90
2022/08/03 02:31:14;;;;;;;2.53;0.97;;;;;;;24.59;50.15;98832.03;6098170;23;20196;-90
2022/08/03 02:33:49;;;;;;;1.83;0.90;;;;;;;24.51;50.76;98833.91;6072643;23;20250;-90
2022/08/03 02:36:27;;;;;;;1.80;1.10;;;;;;;24.45;51.11;98835.44;6073912;23;20190;-89
2022/08/03 02:38:57;;;;;;;2.90;0.97;;;;;;;24.39;51.17;98837.00;6097955;23;20137;-90
2022/08/03 02:41:30;;;;;;;3.70;1.57;;;;;;;24.27;51.52;98842.91;6072657;23;20170;-90
2022/08/03 02:43:58;;;;;;;1.77;0.93;;;;;;;24.28;51.34;98839.22;6097909;23;20153;-90
2022/08/03 02:46:29;;;;;;;3.20;0.93;;;;;;;24.27;50.96;98835.72;6072987;23;20168;-90
2022/08/03 02:48:58;;;;;;;2.17;1.10;;;;;;;24.35;50.34;98840.19;6097944;23;20228;-89
2022/08/03 02:51:28;;;;;;;3.47;1.00;;;;;;;24.21;50.47;98833.72;6072359;23;20164;-90
2022/08/03 02:53:59;;;;;;;2.47;1.30;;;;;;;24.21;50.98;98840.94;6097984;23;20152;-90
2022/08/03 02:56:27;;;;;;;2.30;1.13;;;;;;;24.20;50.38;98831.22;6072523;23;20155;-90
2022/08/03 02:58:55;;;;;;;1.47;0.80;;;;;;;24.13;51.03;98847.16;6097773;23;20453;-90
2022/08/03 03:01:24;;;;;;;2.03;1.10;;;;;;;24.03;50.97;98845.66;6097819;23;20152;-90
2022/08/03 03:03:52;;;;;;;1.50;0.83;;;;;;;23.97;51.36;98847.19;6072699;23;20153;-89
2022/08/03 03:06:18;;;;;;;1.37;0.77;;;;;;;24.02;51.28;98852.03;6072425;23;20163;-90
2022/08/03 03:08:45;;;;;;;1.40;0.90;;;;;;;24.06;50.98;98846.13;6072244;23;20171;-90
2022/08/03 03:11:15;;;;;;;2.27;1.47;;;;;;;24.02;50.95;98858.22;6072448;23;20152;-90
2022/08/03 03:13:43;;;;;;;2.30;0.90;;;;;;;24.06;50.75;98853.34;6097647;23;20251;-89
2022/08/03 03:16:10;;;;;;;6.63;0.83;;;;;;;24.11;50.63;98851.84;6097391;23;20228;-90
2022/08/03 03:18:38;;;;;;;2.03;1.03;;;;;;;24.08;51.00;98859.38;6098022;23;20160;-90
2022/08/03 03:21:06;;;;;;;2.07;1.10;;;;;;;24.05;51.02;98854.34;6097349;23;20251;-90
2022/08/03 03:23:35;;;;;;;2.63;0.83;;;;;;;24.11;50.80;98859.06;6097151;23;20152;-89
2022/08/03 03:26:02;;;;;;;2.57;1.10;;;;;;;24.12;50.89;98863.41;6097346;23;20176;-89
2022/08/03 03:28:29;;;;;;;1.90;0.83;;;;;;;24.09;51.02;98863.72;6097314;23;20660;-89
2022/08/03 03:30:57;;;;;;;2.53;1.07;;;;;;;24.05;51.20;98862.38;6072168;23;20152;-89
2022/08/03 03:33:23;;;;;;;1.77;0.87;;;;;;;24.13;50.91;98867.75;6097126;23;20184;-90
2022/08/03 03:35:50;;;;;;;1.33;0.87;;;;;;;24.07;51.84;98863.88;6097183;23;20152;-90
2022/08/03 03:38:18;;;;;;;2.17;1.10;;;;;;;24.05;52.06;98870.44;6072047;23;20156;-89
2022/08/03 03:40:45;;;;;;;2.87;1.30;;;;;;;24.04;52.25;98868.75;6071966;23;20699;-90
2022/08/03 03:43:12;;;;;;;2.70;1.43;;;;;;;24.01;52.18;98877.97;6097341;23;20200;-89
2022/08/03 03:45:43;;;;;;;2.13;1.00;;;;;;;24.13;51.61;98873.94;6097090;23;20179;-90
2022/08/03 03:48:10;;;;;;;1.73;0.90;;;;;;;24.22;51.61;98882.78;6097504;23;20444;-90
2022/08/03 03:50:39;;;;;;;2.27;1.27;;;;;;;24.29;51.26;98883.78;6097202;23;20228;-90
2022/08/03 03:53:09;;;;;;;1.43;0.73;;;;;;;24.34;51.19;98886.75;6098029;23;20589;-90
2022/08/03 03:55:37;;;;;;;2.60;1.10;;;;;;;24.38;51.46;98880.03;6072095;23;20156;-89
2022/08/03 03:58:03;;;;;;;3.83;1.20;;;;;;;24.50;51.18;98889.38;6097341;23;20585;-89
2022/08/03 04:00:29;;;;;;;2.57;0.97;;;;;;;24.46;51.17;98888.03;6072377;23;20500;-90
2022/08/03 04:02:55;;;;;;;5.83;1.33;;;;;;;24.54;51.23;98882.66;6097053;23;20159;-90
2022/08/03 04:11:18;;;;;;;2.77;1.40;;;;;;;24.70;51.39;98895.97;6097529;23;20156;-90
2022/08/03 04:13:59;;;;;;;3.73;1.13;;;;;;;24.73;51.66;98892.09;6097411;23;20169;-90
2022/08/03 04:16:27;;;;;;;2.33;1.13;;;;;;;24.68;51.97;98897.16;6097051;23;20463;-89
2022/08/03 04:19:00;;;;;;;2.83;1.30;;;;;;;24.81;52.09;98898.28;6071753;23;20162;-90
2022/08/03 04:21:28;;;;;;;3.57;1.10;;;;;;;24.82;52.05;98894.56;6097394;23;20196;-89
2022/08/03 04:24:00;;;;;;;3.27;1.27;;;;;;;24.83;52.49;98890.91;6097346;23;20466;-90
2022/08/03 04:26:31;;;;;;;2.87;1.30;;;;;;;24.98;52.36;98888.28;6097208;23;20137;-90
2022/08/03 04:28:58;;;;;;;6.97;1.27;;;;;;;25.05;52.66;98895.44;6071924;23;20166;-90
2022/08/03 04:31:26;;;;;;;2.83;1.10;;;;;;;25.16;52.54;98893.38;6097373;23;20546;-90
2022/08/03 04:33:53;;;;;;;10.30;1.60;;;;;;;25.20;52.81;98902.72;6072066;23;20167;-90
2022/08/03 04:36:25;;;;;;;3.10;1.30;;;;;;;25.31;52.36;98903.16;6097412;23;20179;-90
2022/08/03 04:39:22;;;;;;;3.00;1.30;;;;;;;25.38;52.41;98900.56;6097657;23;20616;-90
2022/08/03 04:41:53;;;;;;;2.17;1.10;;;;;;;25.47;52.71;98910.25;6071670;23;20141;-90
2022/08/03 04:44:22;;;;;;;6.20;1.40;;;;;;;25.51;52.36;98911.56;6071773;23;20565;-90
2022/08/03 04:46:48;;;;;;;2.60;1.27;;;;;;;25.62;52.20;98908.44;6072166;23;20176;-90
2022/08/03 04:49:14;;;;;;;10.27;1.90;;;;;;;25.71;51.62;98910.03;6072290;23;20171;-90
2022/08/03 04:51:41;;;;;;;2.87;1.50;;;;;;;25.77;51.81;98914.69;6097053;23;20149;-90
2022/08/03 04:54:12;;;;;;;3.93;1.73;;;;;;;25.88;51.67;98922.31;6071693;23;20157;-90
2022/08/03 04:56:42;;;;;;;2.63;1.57;;;;;;;25.97;51.46;98921.19;6071733;23;20171;-89
2022/08/03 04:59:08;;;;;;;2.57;1.60;;;;;;;26.01;51.50;98917.13;6098192;23;20231;-89
2022/08/03 05:01:34;;;;;;;3.87;1.60;;;;;;;26.10;51.26;98916.00;6098800;23;20159;-90
2022/08/03 05:03:59;;;;;;;4.07;1.80;;;;;;;26.21;51.43;98907.53;6074294;23;20525;-90
2022/08/03 05:06:25;;;;;;;2.80;1.73;;;;;;;26.35;51.29;98913.09;6073575;23;20160;-90
2022/08/03 05:08:50;;;;;;;4.50;2.10;;;;;;;26.37;51.09;98911.88;6098189;23;20167;-90
2022/08/03 05:11:17;;;;;;;3.07;1.70;;;;;;;26.44;50.75;98922.72;6073498;23;20165;-90
2022/08/03 05:13:44;;;;;;;3.33;1.40;;;;;;;26.53;50.48;98921.59;6073375;23;20184;-90
2022/08/03 05:16:10;;;;;;;4.07;1.97;;;;;;;26.60;50.00;98925.19;6098525;23;20167;-90
2022/08/03 05:18:36;;;;;;;2.50;1.43;;;;;;;26.63;50.86;98928.34;6073253;23;20180;-90
2022/08/03 05:21:03;;;;;;;3.63;1.80;;;;;;;26.73;50.19;98925.38;6098507;23;20153;-90
2022/08/03 05:23:30;;;;;;;3.57;2.03;;;;;;;26.80;50.48;98923.66;6073359;23;20499;-91
2022/08/03 05:25:57;;;;;;;7.33;1.67;;;;;;;26.84;50.31;98923.06;6098729;23;20161;-90
2022/08/03 05:28:24;;;;;;;5.30;1.93;;;;;;;26.99;49.95;98927.59;6099357;23;20148;-90
2022/08/03 05:30:51;;;;;;;3.60;1.73;;;;;;;27.09;49.94;98938.88;6099190;23;20223;-89
2022/08/03 05:33:16;;;;;;;3.05;1.80;;;;;;;27.14;49.36;98936.44;6074292;23;20191;-90
2022/08/03 05:35:43;;;;;;;6.73;1.63;;;;;;;27.26;49.04;98943.81;6098713;23;20153;-90
2022/08/03 05:38:09;;;;;;;5.10;1.93;;;;;;;27.32;49.80;98943.06;6073593;23;20573;-90
2022/08/03 05:40:39;;;;;;;5.37;2.00;;;;;;;27.37;49.46;98945.16;6073189;23;20171;-90
2022/08/03 05:43:05;;;;;;;3.50;2.13;;;;;;;27.47;49.67;98944.88;6073236;23;20164;-90
2022/08/03 05:45:32;;;;;;;3.17;1.80;;;;;;;27.45;49.48;98945.06;6098202;23;20504;-90
2022/08/03 05:47:59;;;;;;;7.63;2.43;;;;;;;27.56;48.90;98941.88;6073059;23;20157;-90
2022/08/03 05:50:25;;;;;;;6.05;1.95;;;;;;;27.50;49.73;98949.88;6098641;23;20156;-90
2022/08/03 05:52:54;;;;;;;2.83;1.70;;;;;;;27.48;49.94;98946.56;6072930;23;20184;-89
2022/08/03 05:55:20;;;;;;;3.80;1.73;;;;;;;27.60;50.03;98955.75;6098128;23;20152;-90
2022/08/03 05:57:47;;;;;;;2.92;1.52;;;;;;;27.68;49.78;98951.09;6098512;23;20231;-90
2022/08/03 06:00:14;;;;;;;3.10;2.08;;;;;;;27.82;49.32;98952.03;6098008;23;20561;-89
2022/08/03 06:02:41;;;;;;;3.65;1.85;;;;;;;27.93;49.55;98954.22;6098122;23;20144;-90
2022/08/03 06:05:07;;;;;;;3.42;1.80;;;;;;;28.22;48.28;98958.59;6073153;23;20490;-90
2022/08/03 06:07:35;;;;;;;10.40;2.42;;;;;;;28.40;47.33;98964.31;6073366;23;20191;-90
2022/08/03 06:10:03;;;;;;;5.28;2.28;;;;;;;28.47;47.67;98962.47;6072325;23;20163;-90
2022/08/03 06:12:30;;;;;;;6.22;2.17;;;;;;;28.62;47.35;98961.34;6073277;23;20203;-90
2022/08/03 06:14:56;;;;;;;4.03;1.77;;;;;;;28.77;46.89;98957.69;6072798;23;20157;-90
2022/08/03 06:17:22;;;;;;;4.07;2.00;;;;;;;28.86;47.55;98961.88;6073172;23;20157;-88
2022/08/03 06:19:52;;;;;;;4.97;2.17;;;;;;;29.02;47.23;98948.88;6098344;23;20156;-90
2022/08/03 06:22:19;;;;;;;3.70;1.83;;;;;;;29.12;47.41;98953.88;6098139;23;20525;-90
2022/08/03 06:24:46;;;;;;;3.05;2.15;;;;;;;29.19;47.07;98955.53;6097679;23;20163;-89
2022/08/03 06:27:13;;;;;;;5.53;2.13;;;;;;;29.52;46.67;98960.22;6097727;23;20148;-89
2022/08/03 06:29:39;;;;;;;5.15;2.13;;;;;;;29.67;46.37;98961.69;6098842;23;20159;-89
2022/08/03 06:32:05;;;;;;;6.95;2.15;;;;;;;29.41;45.72;98967.06;6073739;23;20215;-89
2022/08/03 06:34:30;;;;;;;3.38;1.98;;;;;;;29.37;45.79;98963.13;6098855;23;20188;-89
2022/08/03 06:36:57;;;;;;;3.67;1.80;;;;;;;29.16;45.85;98963.25;6072576;23;20481;-88
2022/08/03 06:39:23;;;;;;;3.25;2.08;;;;;;;29.39;46.15;98963.75;6098333;23;20178;-89
2022/08/03 06:41:50;;;;;;;3.63;2.10;;;;;;;29.68;45.03;98967.94;6072548;23;20152;-89
2022/08/03 06:44:16;;;;;;;3.50;1.63;;;;;;;29.96;44.07;98962.34;6072488;23;20171;-89
2022/08/03 06:46:43;;;;;;;3.13;1.92;;;;;;;29.94;42.64;98959.03;6098650;23;20184;-88
2022/08/03 06:49:08;;;;;;;2.38;1.48;;;;;;;30.15;42.44;98958.81;6097988;23;20152;-90
2022/08/03 06:51:35;;;;;;;4.57;1.52;;;;;;;30.32;41.75;98960.88;6098173;23;20163;-90
2022/08/03 06:54:01;;;;;;;2.60;1.30;;;;;;;30.59;41.36;98961.66;6073817;23;20223;-88
2022/08/03 06:56:27;;;;;;;2.28;1.30;;;;;;;30.59;41.32;98960.84;6097844;23;20153;-90
2022/08/03 06:58:54;;;;;;;3.97;1.50;;;;;;;31.00;40.43;98959.44;6098174;23;20153;-89
2022/08/03 07:01:23;;;;;;;5.18;1.70;;;;;;;31.12;38.32;98965.03;6097760;23;20244;-90
2022/08/03 07:03:49;;;;;;;2.35;1.30;;;;;;;31.25;38.50;98964.13;6072231;23;20153;-90
2022/08/03 07:06:20;;;;;;;2.83;1.10;;;;;;;31.74;37.58;98958.00;6072661;23;20168;-90
2022/08/03 07:08:46;;;;;;;3.10;1.63;;;;;;;31.97;36.45;98961.75;6073345;23;20160;-90
2022/08/03 07:11:13;;;;;;;1.95;1.15;;;;;;;31.97;36.82;98966.38;6072358;23;20243;-90
2022/08/03 07:14:03;;;;;;;4.78;1.02;;;;;;;32.20;35.57;98967.44;6072315;23;20180;-90
2022/08/03 07:16:29;;;;;;;2.38;1.15;;;;;;;31.84;35.38;98972.72;6097950;23;20160;-88
2022/08/03 07:18:55;;;;;;;2.35;1.20;;;;;;;31.92;36.37;98968.94;6097988;23;20227;-89
2022/08/03 07:21:22;;;;;;;2.13;1.20;;;;;;;32.00;35.26;98966.78;6097307;23;20152;-90
2022/08/03 07:23:48;;;;;;;3.20;1.27;;;;;;;32.15;35.32;98974.59;6097247;23;20148;-90
2022/08/03 07:26:15;;;;;;;2.35;1.23;;;;;;;32.20;34.50;98972.88;6072190;23;20167;-90
2022/08/03 07:28:40;;;;;;;2.60;0.90;;;;;;;32.42;34.12;98964.28;6097549;23;20163;-90
2022/08/03 07:31:08;;;;;;;2.50;1.00;;;;;;;32.62;34.58;98971.22;6072585;23;20160;-91
2022/08/03 07:33:34;;;;;;;1.88;1.08;;;;;;;32.72;35.03;98970.69;6073370;23;20647;-90
2022/08/03 07:35:59;;;;;;;4.80;1.20;;;;;;;32.86;34.69;98961.34;6071991;23;20227;-90
2022/08/03 07:38:26;;;;;;;2.63;1.20;;;;;;;33.24;33.27;98970.03;6071530;23;20242;-88
2022/08/03 07:40:52;;;;;;;2.20;1.10;;;;;;;33.17;33.50;98968.47;6096908;23;20576;-90
2022/08/03 07:43:18;;;;;;;2.10;1.10;;;;;;;33.12;32.72;98968.34;6069614;23;20165;-89
2022/08/03 07:45:44;;;;;;;1.33;0.80;;;;;;;32.96;32.65;98960.78;6071736;23;20172;-89
2022/08/03 07:48:11;;;;;;;2.28;1.08;;;;;;;33.44;32.29;98966.22;6096980;23;20152;-90
2022/08/03 07:50:37;;;;;;;3.75;1.00;;;;;;;33.73;31.05;98962.66;6071948;23;20235;-89
2022/08/03 07:53:02;;;;;;;5.72;1.20;;;;;;;33.90;31.23;98953.59;6072252;23;20287;-90
2022/08/03 07:55:29;;;;;;;1.98;1.25;;;;;;;34.06;31.24;98956.69;6072104;23;20157;-90
2022/08/03 07:58:14;;;;;;;2.03;0.80;;;;;;;34.28;30.74;98960.50;6096277;23;20160;-90
2022/08/03 08:00:40;;;;;;;2.10;0.82;;;;;;;34.48;30.62;98959.06;6095120;23;20132;-91
2022/08/03 08:03:08;;;;;;;1.27;0.60;;;;;;;34.59;29.79;98960.97;6095033;23;20523;-90
2022/08/03 08:05:44;;;;;;;2.03;0.75;;;;;;;34.79;30.09;98963.31;6070236;23;20157;-90
2022/08/03 08:08:09;;;;;;;3.10;1.17;;;;;;;34.64;28.87;98959.44;6070138;23;20155;-90
2022/08/03 08:10:35;;;;;;;1.90;0.82;;;;;;;34.95;29.49;98956.28;6095012;23;20156;-90
2022/08/03 08:13:02;;;;;;;2.50;1.00;;;;;;;35.19;29.89;98964.16;6095812;23;20187;-90
2022/08/03 08:15:27;;;;;;;1.80;0.90;;;;;;;35.38;29.67;98951.16;6097419;23;20568;-91
2022/08/03 08:17:55;;;;;;;1.80;0.80;;;;;;;35.61;28.77;98950.25;6097028;23;20231;-90
2022/08/03 08:20:25;;;;;;;2.28;1.15;;;;;;;35.75;28.16;98946.09;6097014;23;20152;-91
2022/08/03 08:22:50;;;;;;;3.22;0.93;;;;;;;35.61;28.50;98951.06;6097159;23;20188;-89
2022/08/03 08:25:16;;;;;;;2.67;0.90;;;;;;;35.41;28.85;98941.66;6096986;23;20153;-90
2022/08/03 08:27:43;;;;;;;1.75;0.80;;;;;;;35.65;28.28;98952.22;6071889;23;20292;-90
2022/08/03 08:30:12;;;;;;;2.05;0.98;;;;;;;35.96;28.13;98950.81;6097023;23;20223;-90
2022/08/03 08:32:38;;;;;;;1.92;0.73;;;;;;;36.25;27.39;98943.38;6096915;23;20242;-90
2022/08/03 08:35:05;;;;;;;1.88;0.90;;;;;;;35.84;27.36;98941.91;6099012;23;20174;-90
2022/08/03 08:37:37;;;;;;;1.25;0.80;;;;;;;35.94;28.51;98947.53;6099425;23;20172;-90
2022/08/03 08:40:13;;;;;;;2.22;1.10;;;;;;;36.29;27.88;98947.28;6099298;23;20577;-91
2022/08/03 08:42:41;;;;;;;2.20;1.27;;;;;;;36.35;28.49;98936.16;6073691;23;20231;-90
2022/08/03 08:45:10;;;;;;;2.67;1.00;;;;;;;36.33;27.98;98946.53;6099018;23;20683;-91
2022/08/03 08:47:43;;;;;;;2.95;1.17;;;;;;;36.56;27.66;98944.69;6073822;23;20191;-91
2022/08/03 08:50:36;;;;;;;1.85;0.85;;;;;;;36.42;27.67;98946.94;6093579;23;20161;-90
2022/08/03 08:53:06;;;;;;;1.65;1.00;;;;;;;36.53;27.79;98945.19;6072016;23;20181;-91
2022/08/03 08:55:58;;;;;;;3.75;0.90;;;;;;;36.67;27.77;98946.47;6098119;23;20152;-91
2022/08/03 08:58:36;;;;;;;4.82;1.15;;;;;;;36.75;26.29;98949.59;6072697;23;20155;-89
2022/08/03 09:01:03;;;;;;;1.80;1.08;;;;;;;36.60;27.26;98943.94;6098068;23;20136;-91
2022/08/03 09:03:33;;;;;;;2.63;1.10;;;;;;;36.55;27.84;98938.41;6097926;23;20164;-90
2022/08/03 09:06:01;;;;;;;1.20;0.70;;;;;;;36.55;27.41;98930.22;6073258;23;20161;-90
2022/08/03 09:08:29;;;;;;;2.08;1.13;;;;;;;36.74;27.07;98933.47;6072752;23;20230;-90
2022/08/03 09:10:56;;;;;;;3.22;1.20;;;;;;;36.84;27.25;98928.13;6073408;23;20400;-89
2022/08/03 09:13:23;;;;;;;1.52;0.70;;;;;;;36.99;27.12;98922.03;6072854;23;20284;-91
2022/08/03 09:16:39;;;;;;;3.78;0.90;;;;;;;37.20;26.73;98926.63;6098330;23;20183;-91
2022/08/03 09:19:12;;;;;;;2.33;0.88;;;;;;;36.99;26.75;98922.84;6098384;23;20129;-89
2022/08/03 09:21:39;;;;;;;1.80;1.08;;;;;;;36.68;27.13;98929.00;6098356;23;20156;-90
2022/08/03 09:24:06;;;;;;;2.75;1.08;;;;;;;36.95;26.17;98917.06;6098199;23;20216;-90
2022/08/03 09:26:37;;;;;;;1.83;0.82;;;;;;;37.06;26.84;98917.16;6098107;23;20588;-90
2022/08/03 09:29:07;;;;;;;3.88;1.05;;;;;;;36.99;26.36;98927.47;6097924;23;20160;-90
2022/08/03 09:31:43;;;;;;;2.75;0.80;;;;;;;37.01;26.24;98909.75;6073084;23;20220;-90
2022/08/03 09:34:13;;;;;;;2.00;0.63;;;;;;;36.80;27.07;98927.78;6097895;23;20149;-90
2022/08/03 09:36:46;;;;;;;1.88;0.80;;;;;;;37.04;26.64;98911.13;6097813;23;20156;-91
2022/08/03 09:39:17;;;;;;;1.58;0.82;;;;;;;37.41;26.43;98912.09;6098194;23;20141;-91
2022/08/03 09:41:45;;;;;;;1.45;0.70;;;;;;;37.23;25.61;98909.72;6098401;23;20200;-89
2022/08/03 09:44:11;;;;;;;2.67;1.00;;;;;;;37.28;25.73;98917.97;6072329;23;20644;-91
2022/08/03 09:46:58;;;;;;;2.05;0.98;;;;;;;37.66;24.99;98908.78;6072551;23;20163;-91
2022/08/03 09:49:25;;;;;;;1.17;0.60;;;;;;;37.37;25.33;98902.75;6098592;23;20148;-91
2022/08/03 09:55:14;;;;;;;1.83;0.80;;;;;;;36.99;25.69;98905.63;6009760;23;20165;-90
2022/08/03 09:58:11;;;;;;;1.25;0.80;;;;;;;36.76;25.80;98903.97;6010158;23;20170;-91
2022/08/03 10:01:23;;;;;;;1.90;0.90;;;;;;;36.75;26.25;98899.56;6083168;23;20167;-90
2022/08/03 10:03:58;;;;;;;2.08;0.80;;;;;;;36.93;25.87;98900.06;6062012;23;20251;-91
2022/08/03 10:06:24;;;;;;;1.33;0.75;;;;;;;37.00;25.93;98888.16;6097623;23;20178;-90
2022/08/03 10:09:11;;;;;;;4.38;0.82;;;;;;;37.36;25.78;98884.69;6072460;23;20156;-90
2022/08/03 10:11:38;;;;;;;2.17;0.93;;;;;;;37.39;25.51;98884.19;6098167;23;20184;-90
2022/08/03 10:14:19;;;;;;;1.10;0.70;;;;;;;37.75;24.73;98883.41;6072888;23;20591;-90
2022/08/03 10:16:47;;;;;;;1.38;0.60;;;;;;;37.83;24.41;98888.41;6072431;23;20148;-91
2022/08/03 10:19:13;;;;;;;1.42;0.75;;;;;;;37.82;25.10;98878.53;6072653;23;20156;-90
2022/08/03 10:22:18;;;;;;;2.30;0.70;;;;;;;38.16;24.89;98881.78;6073273;23;20156;-91
2022/08/03 10:24:53;;;;;;;1.23;0.60;;;;;;;38.14;24.15;98879.31;6094667;23;20589;-91
2022/08/03 10:27:21;;;;;;;2.13;0.90;;;;;;;37.80;24.90;98879.88;6097626;23;20215;-91
2022/08/03 10:29:55;;;;;;;1.45;0.70;;;;;;;37.83;24.99;98871.16;6071099;23;20160;-91
2022/08/03 10:32:29;;;;;;;1.27;0.70;;;;;;;37.99;24.47;98876.50;6097213;23;20179;-91
2022/08/03 10:35:16;;;;;;;1.52;0.77;;;;;;;38.07;24.73;98872.44;6072435;23;20155;-92
2022/08/03 10:37:47;;;;;;;1.40;0.60;;;;;;;38.32;24.82;98858.09;6072505;23;20208;-91
2022/08/03 10:40:19;;;;;;;2.00;1.05;;;;;;;38.47;24.24;98855.44;6072164;23;20153;-91
2022/08/03 10:43:50;;;;;;;;;;;;;;;;;;;;;
2022/08/03 10:45:48;;;;;;;2.10;0.90;;;;;;;38.43;24.35;98855.13;6078896;23;20187;-91
2022/08/03 10:48:17;;;;;;;1.15;0.70;;;;;;;38.17;24.77;98863.44;6070076;23;20604;-91
2022/08/03 10:50:44;;;;;;;1.52;0.85;;;;;;;38.25;24.60;98857.47;6069401;23;20167;-91
2022/08/03 10:53:09;;;;;;;1.70;0.95;;;;;;;38.12;24.22;98859.63;6072062;23;20192;-91
2022/08/03 10:58:36;;;;;;;1.77;0.93;;;;;;;38.26;24.70;98842.72;6095260;23;20269;-91
2022/08/03 11:01:07;;;;;;;1.45;0.80;;;;;;;38.48;24.53;98843.38;6071049;23;20171;-91
2022/08/03 11:03:53;;;;;;;1.67;0.73;;;;;;;38.43;23.88;98835.97;6096778;23;20137;-91
2022/08/03 11:06:21;;;;;;;1.55;0.80;;;;;;;38.35;25.21;98841.13;6051262;23;20518;-92
2022/08/03 11:09:06;;;;;;;1.02;0.70;;;;;;;38.58;23.74;98838.75;6071615;23;20160;-92
2022/08/03 11:11:32;;;;;;;1.13;0.63;;;;;;;38.73;23.43;98844.28;6097678;23;20147;-91
2022/08/03 11:14:07;;;;;;;1.30;0.60;;;;;;;38.63;23.47;98837.94;6096866;23;20184;-91
2022/08/03 11:16:38;;;;;;;5.53;1.10;;;;;;;38.59;24.09;98831.38;6097137;23;20250;-92
2022/08/03 11:19:07;;;;;;;2.58;1.02;;;;;;;37.90;25.23;98834.28;6098096;23;20132;-90
2022/08/03 11:21:50;;;;;;;3.10;0.90;;;;;;;38.04;24.43;98835.47;6072452;23;20596;-91
2022/08/03 11:24:50;;;;;;;4.05;0.98;;;;;;;37.30;25.27;98833.75;6072161;23;20160;-90
2022/08/03 11:27:19;;;;;;;1.73;0.73;;;;;;;36.94;25.33;98840.78;6097727;23;20133;-90
2022/08/03 11:29:59;;;;;;;2.67;0.80;;;;;;;36.73;25.53;98834.28;6097508;23;20660;-90
2022/08/03 11:32:37;;;;;;;1.15;0.70;;;;;;;36.96;25.29;98833.19;6097976;23;20172;-90
2022/08/03 11:35:12;;;;;;;1.58;0.95;;;;;;;37.13;25.56;98819.41;6072537;23;20647;-91
2022/08/03 11:37:56;;;;;;;1.33;0.73;;;;;;;37.53;25.37;98820.59;6073167;23;20198;-90
2022/08/03 11:40:46;;;;;;;1.10;0.50;;;;;;;37.79;25.01;98815.31;6097540;23;20224;-91
2022/08/03 11:43:29;;;;;;;1.63;0.80;;;;;;;37.81;24.71;98819.44;6097753;23;20133;-91
2022/08/03 11:46:00;;;;;;;3.17;1.15;;;;;;;37.74;24.97;98815.28;6097959;23;20507;-90
2022/08/03 11:48:43;;;;;;;3.58;0.70;;;;;;;37.74;25.20;98816.09;6072088;23;20658;-91
2022/08/03 11:51:22;;;;;;;1.00;0.70;;;;;;;37.85;25.55;98814.22;6072151;23;20591;-89
2022/08/03 11:54:18;;;;;;;1.77;0.85;;;;;;;37.86;24.88;98811.28;6097392;23;20184;-90
2022/08/03 11:56:46;;;;;;;1.13;0.65;;;;;;;37.59;24.29;98810.50;6095521;23;20239;-91
2022/08/03 11:59:12;;;;;;;1.85;0.68;;;;;;;37.62;25.96;98800.97;6071974;23;20153;-90
2022/08/03 12:01:39;;;;;;;1.38;0.65;;;;;;;37.34;25.04;98802.09;6097234;23;20573;-91